createdAt,value
2018-08-17T00:00:13.916Z,25.12
2018-08-17T00:02:40.555Z,25.08
2018-08-17T00:05:07.229Z,25.06
2018-08-17T00:07:33.842Z,25.09
2018-08-17T00:10:00.516Z,25.05
2018-08-17T00:12:27.185Z,25.02
2018-08-17T00:14:53.895Z,25.05
2018-08-17T00:17:20.558Z,25.02
2018-08-17T00:19:47.188Z,25.04
2018-08-17T00:22:14.888Z,25.05
2018-08-17T00:24:41.526Z,25.04
2018-08-17T00:27:08.159Z,25.04
2018-08-17T00:29:34.797Z,25.08
2018-08-17T00:32:01.433Z,25.05
2018-08-17T00:34:28.071Z,25.04
2018-08-17T00:36:54.708Z,25.03
2018-08-17T00:39:21.408Z,25.00
2018-08-17T00:41:48.034Z,24.97
2018-08-17T00:44:14.677Z,25.00
2018-08-17T00:46:41.324Z,25.04
2018-08-17T00:49:08.040Z,25.00
2018-08-17T00:51:34.707Z,25.02
2018-08-17T00:54:01.336Z,25.00
2018-08-17T00:56:27.971Z,25.00
2018-08-17T00:58:54.646Z,25.00
2018-08-17T01:01:21.349Z,25.00
2018-08-17T01:03:47.986Z,24.98
2018-08-17T01:06:14.625Z,24.95
2018-08-17T01:08:41.304Z,24.97
2018-08-17T01:11:08.044Z,24.91
2018-08-17T01:13:34.724Z,24.94
2018-08-17T01:16:01.408Z,24.92
2018-08-17T01:18:28.093Z,24.93
2018-08-17T01:20:54.732Z,24.92
2018-08-17T01:23:21.423Z,24.92
2018-08-17T01:25:48.064Z,24.96
2018-08-17T01:28:14.721Z,24.96
2018-08-17T01:30:41.351Z,24.96
2018-08-17T01:33:08.053Z,24.99
2018-08-17T01:35:34.687Z,24.93
2018-08-17T01:38:01.314Z,24.94
2018-08-17T01:40:28.003Z,24.96
2018-08-17T01:42:54.607Z,24.89
2018-08-17T01:45:21.243Z,24.89
2018-08-17T01:47:47.915Z,24.91
2018-08-17T01:50:14.551Z,24.90
2018-08-17T01:52:41.218Z,24.91
2018-08-17T01:55:07.860Z,24.88
2018-08-17T01:57:34.601Z,24.90
2018-08-17T02:00:01.246Z,24.90
2018-08-17T02:02:27.894Z,24.89
2018-08-17T02:04:54.539Z,24.92
2018-08-17T02:07:21.271Z,24.89
2018-08-17T02:09:47.911Z,24.89
2018-08-17T02:12:14.545Z,24.88
2018-08-17T02:14:41.287Z,24.89
2018-08-17T02:17:07.869Z,24.88
2018-08-17T02:19:34.510Z,24.85
2018-08-17T02:22:01.158Z,24.87
2018-08-17T02:24:27.894Z,24.85
2018-08-17T02:26:54.484Z,24.79
2018-08-17T02:29:21.127Z,24.82
2018-08-17T02:31:47.772Z,24.82
2018-08-17T02:34:15.501Z,24.79
2018-08-17T02:36:41.062Z,24.77
2018-08-17T02:39:07.719Z,24.82
2018-08-17T02:41:34.397Z,24.80
2018-08-17T02:44:01.041Z,24.79
2018-08-17T02:46:27.727Z,24.78
2018-08-17T02:48:54.408Z,24.76
2018-08-17T02:51:21.081Z,24.81
2018-08-17T02:53:47.770Z,24.78
2018-08-17T02:56:14.410Z,24.77
2018-08-17T02:58:41.050Z,24.80
2018-08-17T03:01:07.688Z,24.76
2018-08-17T03:03:34.380Z,24.76
2018-08-17T03:06:01.038Z,24.78
2018-08-17T03:08:27.677Z,24.75
2018-08-17T03:10:54.359Z,24.78
2018-08-17T03:13:21.042Z,24.75
2018-08-17T03:15:47.688Z,24.66
2018-08-17T03:18:14.321Z,24.68
2018-08-17T03:20:40.995Z,24.69
2018-08-17T03:23:07.670Z,24.56
2018-08-17T03:25:34.330Z,24.58
2018-08-17T03:28:00.961Z,24.70
2018-08-17T03:30:27.651Z,24.68
2018-08-17T03:32:54.312Z,24.76
2018-08-17T03:35:20.939Z,24.77
2018-08-17T03:37:47.579Z,24.70
2018-08-17T03:40:14.220Z,24.64
2018-08-17T03:42:40.860Z,24.67
2018-08-17T03:45:07.490Z,24.64
2018-08-17T03:47:34.178Z,24.63
2018-08-17T03:50:00.862Z,24.70
2018-08-17T03:52:27.559Z,24.65
2018-08-17T03:54:54.192Z,24.57
2018-08-17T03:57:20.902Z,24.57
2018-08-17T03:59:47.533Z,24.59
2018-08-17T04:02:14.168Z,24.60
2018-08-17T04:04:40.827Z,24.61
2018-08-17T04:07:07.464Z,24.60
2018-08-17T04:09:34.109Z,24.66
2018-08-17T04:12:00.741Z,24.62
2018-08-17T04:14:27.401Z,24.65
2018-08-17T04:16:54.071Z,24.74
2018-08-17T04:19:20.739Z,24.70
2018-08-17T04:21:47.367Z,24.72
2018-08-17T04:24:14.021Z,24.75
2018-08-17T04:26:40.693Z,24.76
2018-08-17T04:29:07.329Z,24.73
2018-08-17T04:31:34.021Z,24.77
2018-08-17T04:34:00.658Z,24.78
2018-08-17T04:36:27.307Z,24.78
2018-08-17T04:38:53.956Z,24.87
2018-08-17T04:41:20.645Z,24.88
2018-08-17T04:43:47.287Z,24.86
2018-08-17T04:46:13.960Z,24.84
2018-08-17T04:48:40.596Z,24.84
2018-08-17T04:51:07.275Z,24.91
2018-08-17T04:53:33.907Z,24.91
2018-08-17T04:56:00.573Z,24.89
2018-08-17T04:58:27.219Z,24.98
2018-08-17T05:00:53.850Z,24.99
2018-08-17T05:03:21.907Z,24.96
2018-08-17T05:05:47.164Z,25.06
2018-08-17T05:08:13.853Z,25.08
2018-08-17T05:10:40.524Z,25.05
2018-08-17T05:13:07.161Z,25.02
2018-08-17T05:15:33.851Z,25.00
2018-08-17T05:18:00.529Z,25.01
2018-08-17T05:20:27.252Z,25.04
2018-08-17T05:22:53.894Z,24.99
2018-08-17T05:25:20.580Z,25.04
2018-08-17T05:27:47.219Z,25.08
2018-08-17T05:30:13.908Z,25.24
2018-08-17T05:32:40.587Z,25.16
2018-08-17T05:35:07.233Z,25.40
2018-08-17T05:37:33.967Z,25.45
2018-08-17T05:40:00.613Z,25.69
2018-08-17T05:42:27.302Z,25.59
2018-08-17T05:44:53.967Z,25.48
2018-08-17T05:47:20.585Z,25.49
2018-08-17T05:49:47.241Z,25.43
2018-08-17T05:52:13.932Z,25.38
2018-08-17T05:54:40.572Z,25.41
2018-08-17T05:57:07.247Z,25.44
2018-08-17T05:59:33.966Z,25.44
2018-08-17T06:02:00.607Z,25.54
2018-08-17T06:04:27.259Z,25.59
2018-08-17T06:06:54.018Z,25.60
2018-08-17T06:09:20.675Z,25.66
2018-08-17T06:11:47.530Z,25.69
2018-08-17T06:14:14.021Z,25.70
2018-08-17T06:16:40.705Z,25.71
2018-08-17T06:19:07.392Z,25.75
2018-08-17T06:21:33.973Z,25.71
2018-08-17T06:24:00.665Z,25.59
2018-08-17T06:26:27.394Z,25.45
2018-08-17T06:28:54.070Z,25.41
2018-08-17T06:31:20.727Z,25.46
2018-08-17T06:33:47.405Z,25.73
2018-08-17T06:36:14.067Z,25.85
2018-08-17T06:38:40.681Z,25.67
2018-08-17T06:41:07.367Z,25.53
2018-08-17T06:43:34.492Z,25.45
2018-08-17T06:46:01.128Z,25.19
2018-08-17T06:48:27.808Z,25.29
2018-08-17T06:50:54.835Z,25.53
2018-08-17T06:53:21.491Z,25.76
2018-08-17T06:55:48.124Z,25.91
2018-08-17T06:58:14.845Z,25.85
2018-08-17T07:00:41.506Z,25.71
2018-08-17T07:03:08.157Z,25.71
2018-08-17T07:05:34.933Z,25.72
2018-08-17T07:08:01.567Z,25.78
2018-08-17T07:10:28.222Z,25.75
2018-08-17T07:12:54.905Z,25.85
2018-08-17T07:15:21.586Z,25.88
2018-08-17T07:17:48.218Z,25.71
2018-08-17T07:20:14.922Z,25.75
2018-08-17T07:22:41.552Z,25.75
2018-08-17T07:25:08.191Z,25.91
2018-08-17T07:27:34.896Z,25.80
2018-08-17T07:30:01.521Z,25.75
2018-08-17T07:32:28.233Z,25.88
2018-08-17T07:34:54.840Z,25.84
2018-08-17T07:37:21.479Z,25.91
2018-08-17T07:39:48.138Z,25.97
2018-08-17T07:42:14.778Z,26.00
2018-08-17T07:44:41.478Z,25.96
2018-08-17T07:47:08.137Z,26.00
2018-08-17T07:49:34.875Z,25.77
2018-08-17T07:52:01.607Z,25.89
2018-08-17T07:54:28.208Z,25.81
2018-08-17T07:56:54.843Z,25.68
2018-08-17T07:59:21.549Z,25.65
2018-08-17T08:01:48.226Z,25.45
2018-08-17T08:04:14.881Z,25.62
2018-08-17T08:06:41.544Z,25.57
2018-08-17T08:09:08.354Z,25.58
2018-08-17T08:11:34.995Z,25.54
2018-08-17T08:14:01.626Z,25.44
2018-08-17T08:16:28.344Z,25.66
2018-08-17T08:18:55.041Z,25.65
2018-08-17T08:21:21.722Z,25.53
2018-08-17T08:23:48.415Z,25.49
2018-08-17T08:26:15.130Z,25.55
2018-08-17T08:28:41.784Z,25.57
2018-08-17T08:31:08.482Z,25.62
2018-08-17T08:33:35.218Z,25.74
2018-08-17T08:36:01.836Z,25.52
2018-08-17T08:38:28.469Z,25.88
2018-08-17T08:40:55.176Z,25.78
2018-08-17T08:43:21.867Z,25.88
2018-08-17T08:45:48.522Z,26.00
2018-08-17T08:48:15.174Z,25.99
2018-08-17T08:50:41.866Z,25.74
2018-08-17T08:53:08.514Z,25.63
2018-08-17T08:55:35.241Z,25.57
2018-08-17T08:58:01.885Z,25.45
2018-08-17T09:00:28.520Z,25.59
2018-08-17T09:02:55.296Z,25.42
2018-08-17T09:05:22.052Z,25.56
2018-08-17T09:07:48.682Z,25.59
2018-08-17T09:10:15.484Z,25.51
2018-08-17T09:12:42.181Z,25.49
2018-08-17T09:15:08.819Z,25.47
2018-08-17T09:17:35.513Z,25.41
2018-08-17T09:20:02.153Z,25.34
2018-08-17T09:22:28.799Z,25.41
2018-08-17T09:24:55.439Z,25.55
2018-08-17T09:27:22.119Z,25.53
2018-08-17T09:29:48.764Z,25.72
2018-08-17T09:32:15.636Z,25.82
2018-08-17T09:34:42.271Z,25.68
2018-08-17T09:37:08.905Z,25.89
2018-08-17T09:39:35.592Z,25.56
2018-08-17T09:42:02.213Z,25.76
2018-08-17T09:44:28.838Z,25.89
2018-08-17T09:46:55.479Z,25.69
2018-08-17T09:49:22.206Z,25.45
2018-08-17T09:51:48.871Z,25.47
2018-08-17T09:54:15.572Z,25.57
2018-08-17T09:56:42.212Z,25.62
2018-08-17T09:59:08.869Z,25.46
2018-08-17T10:01:35.515Z,25.48
2018-08-17T10:04:02.185Z,25.54
2018-08-17T10:06:28.809Z,25.57
2018-08-17T10:08:55.469Z,25.54
2018-08-17T10:11:22.100Z,25.52
2018-08-17T10:13:48.745Z,25.42
2018-08-17T10:16:15.474Z,25.49
2018-08-17T10:18:42.166Z,25.51
2018-08-17T10:21:09.001Z,25.51
2018-08-17T10:23:35.467Z,25.61
2018-08-17T10:26:02.197Z,25.59
2018-08-17T10:28:28.795Z,25.61
2018-08-17T10:30:55.445Z,25.63
2018-08-17T10:33:22.109Z,25.64
2018-08-17T10:35:48.725Z,25.52
2018-08-17T10:38:16.593Z,25.53
2018-08-17T10:40:43.328Z,25.53
2018-08-17T10:43:09.923Z,25.47
2018-08-17T10:45:36.594Z,25.50
2018-08-17T10:48:03.227Z,25.48
2018-08-17T10:50:29.905Z,25.58
2018-08-17T10:52:56.518Z,25.48
2018-08-17T10:55:23.181Z,25.49
2018-08-17T10:57:49.815Z,25.40
2018-08-17T11:00:16.466Z,25.41
2018-08-17T11:02:43.123Z,25.39
2018-08-17T11:05:09.915Z,25.42
2018-08-17T11:07:38.951Z,25.44
2018-08-17T11:10:05.615Z,25.47
2018-08-17T11:12:32.270Z,25.49
2018-08-17T11:14:58.955Z,25.41
2018-08-17T11:17:25.589Z,25.47
2018-08-17T11:19:52.246Z,25.60
2018-08-17T11:22:18.944Z,25.57
2018-08-17T11:24:45.580Z,25.49
2018-08-17T11:27:14.881Z,25.56
2018-08-17T11:29:41.615Z,25.55
2018-08-17T11:32:10.460Z,25.59
2018-08-17T11:34:37.106Z,25.55
2018-08-17T11:37:03.797Z,25.55
2018-08-17T11:39:30.440Z,25.63
2018-08-17T11:41:57.238Z,25.67
2018-08-17T11:44:23.896Z,25.57
2018-08-17T11:46:50.541Z,25.58
2018-08-17T11:49:17.186Z,25.48
2018-08-17T11:51:43.839Z,25.60
2018-08-17T11:54:10.514Z,25.60
2018-08-17T11:56:37.448Z,25.48
2018-08-17T11:59:04.060Z,25.57
2018-08-17T12:01:30.752Z,25.50
2018-08-17T12:03:57.412Z,25.56
2018-08-17T12:06:24.066Z,25.58
2018-08-17T12:08:50.867Z,25.59
2018-08-17T12:11:17.533Z,25.58
2018-08-17T12:13:44.161Z,25.59
2018-08-17T12:16:10.806Z,25.59
2018-08-17T12:18:37.481Z,25.60
2018-08-17T12:21:04.159Z,25.50
2018-08-17T12:23:30.787Z,25.50
2018-08-17T12:25:57.501Z,25.57
2018-08-17T12:28:24.275Z,25.65
2018-08-17T12:30:51.277Z,25.65
2018-08-17T12:33:17.901Z,25.54
2018-08-17T12:35:44.556Z,25.68
2018-08-17T12:38:11.224Z,25.81
2018-08-17T12:40:37.840Z,25.78
2018-08-17T12:43:04.513Z,25.61
2018-08-17T12:45:31.162Z,25.59
2018-08-17T12:47:58.916Z,25.76
2018-08-17T12:50:25.654Z,25.80
2018-08-17T12:52:52.332Z,25.71
2018-08-17T12:55:18.982Z,25.74
2018-08-17T12:57:45.632Z,25.75
2018-08-17T13:00:12.300Z,25.86
2018-08-17T13:02:38.986Z,25.76
2018-08-17T13:05:05.629Z,25.74
2018-08-17T13:07:32.265Z,25.80
2018-08-17T13:09:58.911Z,25.68
2018-08-17T13:12:25.633Z,25.67
2018-08-17T13:14:52.247Z,25.70
2018-08-17T13:17:18.985Z,25.58
2018-08-17T13:19:45.613Z,25.47
2018-08-17T13:22:12.251Z,25.67
2018-08-17T13:24:38.897Z,25.64
2018-08-17T13:27:05.530Z,25.69
2018-08-17T13:29:32.177Z,25.56
2018-08-17T13:31:58.806Z,25.72
2018-08-17T13:34:25.523Z,25.65
2018-08-17T13:36:52.289Z,25.55
2018-08-17T13:39:18.999Z,25.47
2018-08-17T13:41:45.676Z,25.47
2018-08-17T13:44:12.377Z,25.39
2018-08-17T13:46:39.036Z,25.28
2018-08-17T13:49:05.812Z,25.38
2018-08-17T13:51:32.487Z,25.42
2018-08-17T13:53:59.092Z,25.32
2018-08-17T13:56:25.738Z,25.24
2018-08-17T13:58:52.378Z,25.44
2018-08-17T14:01:19.096Z,25.13
2018-08-17T14:03:45.705Z,25.07
2018-08-17T14:06:12.422Z,25.14
2018-08-17T14:08:39.029Z,25.30
2018-08-17T14:11:05.834Z,25.36
2018-08-17T14:13:32.660Z,25.59
2018-08-17T14:15:59.257Z,25.40
2018-08-17T14:18:26.016Z,25.60
2018-08-17T14:20:52.709Z,25.56
2018-08-17T14:23:19.310Z,25.59
2018-08-17T14:25:45.980Z,25.57
2018-08-17T14:28:12.597Z,25.43
2018-08-17T14:30:39.244Z,25.58
2018-08-17T14:33:05.884Z,25.60
2018-08-17T14:35:32.526Z,25.64
2018-08-17T14:37:59.208Z,25.63
2018-08-17T14:40:25.972Z,25.62
2018-08-17T14:42:52.502Z,25.68
2018-08-17T14:45:19.188Z,25.65
2018-08-17T14:47:45.833Z,25.63
2018-08-17T14:50:12.515Z,25.70
2018-08-17T14:52:39.195Z,25.62
2018-08-17T14:55:06.032Z,25.61
2018-08-17T14:57:32.711Z,25.66
2018-08-17T14:59:59.367Z,25.65
2018-08-17T15:02:26.027Z,25.66
2018-08-17T15:04:52.663Z,25.70
2018-08-17T15:07:19.424Z,25.58
2018-08-17T15:09:46.064Z,25.53
2018-08-17T15:12:12.706Z,25.52
2018-08-17T15:14:39.366Z,25.49
2018-08-17T15:17:06.015Z,25.61
2018-08-17T15:19:32.696Z,25.64
2018-08-17T15:21:59.342Z,25.70
2018-08-17T15:24:25.990Z,25.72
2018-08-17T15:26:52.627Z,25.81
2018-08-17T15:29:19.307Z,25.88
2018-08-17T15:31:45.977Z,25.88
2018-08-17T15:34:12.590Z,25.95
2018-08-17T15:36:39.221Z,25.99
2018-08-17T15:39:05.861Z,26.08
2018-08-17T15:41:32.499Z,26.08
2018-08-17T15:43:59.135Z,26.17
2018-08-17T15:46:25.770Z,26.13
2018-08-17T15:48:52.512Z,26.18
2018-08-17T15:51:19.152Z,26.19
2018-08-17T15:53:45.789Z,26.13
2018-08-17T15:56:12.524Z,26.14
2018-08-17T15:58:39.159Z,26.12
2018-08-17T16:01:05.896Z,26.22
2018-08-17T16:03:32.433Z,26.20
2018-08-17T16:05:59.075Z,26.19
2018-08-17T16:08:25.797Z,26.24
2018-08-17T16:10:52.338Z,26.18
2018-08-17T16:13:18.973Z,26.09
2018-08-17T16:15:45.654Z,26.16
2018-08-17T16:18:12.318Z,26.21
2018-08-17T16:20:38.947Z,26.27
2018-08-17T16:23:05.797Z,26.27
2018-08-17T16:25:32.438Z,26.29
2018-08-17T16:27:59.099Z,26.29
2018-08-17T16:30:25.753Z,26.32
2018-08-17T16:32:52.469Z,26.30
2018-08-17T16:35:19.069Z,26.31
2018-08-17T16:37:45.705Z,26.36
2018-08-17T16:40:12.336Z,26.37
2018-08-17T16:42:38.976Z,26.37
2018-08-17T16:45:05.654Z,26.36
2018-08-17T16:47:32.287Z,26.38
2018-08-17T16:49:58.923Z,26.30
2018-08-17T16:52:25.595Z,26.35
2018-08-17T16:54:52.264Z,26.38
2018-08-17T16:57:18.905Z,26.36
2018-08-17T16:59:45.663Z,26.37
2018-08-17T17:02:12.295Z,26.39
2018-08-17T17:04:39.022Z,26.34
2018-08-17T17:07:05.578Z,26.34
2018-08-17T17:09:32.299Z,26.27
2018-08-17T17:11:58.930Z,26.32
2018-08-17T17:14:25.567Z,26.32
2018-08-17T17:16:52.207Z,26.28
2018-08-17T17:19:18.844Z,26.29
2018-08-17T17:21:45.480Z,26.22
2018-08-17T17:24:12.118Z,26.21
2018-08-17T17:26:38.758Z,26.27
2018-08-17T17:29:05.394Z,26.25
2018-08-17T17:31:32.040Z,26.19
2018-08-17T17:33:58.670Z,26.17
2018-08-17T17:36:25.355Z,26.20
2018-08-17T17:38:52.014Z,26.19
2018-08-17T17:41:20.299Z,26.16
2018-08-17T17:43:45.354Z,26.08
2018-08-17T17:46:12.028Z,26.20
2018-08-17T17:48:38.705Z,26.16
2018-08-17T17:51:05.345Z,26.15
2018-08-17T17:53:31.985Z,26.14
2018-08-17T17:55:58.629Z,26.13
2018-08-17T17:58:25.269Z,26.13
2018-08-17T18:00:51.958Z,26.14
2018-08-17T18:03:18.594Z,26.12
2018-08-17T18:05:45.243Z,26.12
2018-08-17T18:08:11.872Z,26.13
2018-08-17T18:10:38.512Z,26.11
2018-08-17T18:13:05.193Z,26.09
2018-08-17T18:15:31.817Z,26.08
2018-08-17T18:17:58.487Z,26.08
2018-08-17T18:20:25.092Z,26.07
2018-08-17T18:22:51.730Z,26.06
2018-08-17T18:25:18.443Z,26.07
2018-08-17T18:27:45.078Z,26.07
2018-08-17T18:30:11.707Z,26.11
2018-08-17T18:32:38.362Z,26.13
2018-08-17T18:35:05.043Z,26.08
2018-08-17T18:37:31.655Z,26.07
2018-08-17T18:39:58.292Z,26.03
2018-08-17T18:42:24.939Z,26.06
2018-08-17T18:44:51.581Z,26.05
2018-08-17T18:47:18.244Z,25.99
2018-08-17T18:49:44.885Z,26.01
2018-08-17T18:52:11.521Z,25.96
2018-08-17T18:54:38.161Z,25.98
2018-08-17T18:57:04.811Z,25.94
2018-08-17T18:59:31.440Z,25.90
2018-08-17T19:01:58.086Z,25.88
2018-08-17T19:04:24.714Z,25.88
2018-08-17T19:06:51.390Z,25.87
2018-08-17T19:09:18.020Z,25.87
2018-08-17T19:11:44.661Z,25.85
2018-08-17T19:14:11.304Z,25.87
2018-08-17T19:16:37.941Z,25.85
2018-08-17T19:19:04.628Z,25.84
2018-08-17T19:21:31.267Z,25.86
2018-08-17T19:23:57.948Z,25.85
2018-08-17T19:26:24.584Z,25.84
2018-08-17T19:28:51.259Z,25.84
2018-08-17T19:31:17.893Z,25.85
2018-08-17T19:33:44.585Z,25.78
2018-08-17T19:36:11.217Z,25.77
2018-08-17T19:38:37.843Z,25.77
2018-08-17T19:41:04.480Z,25.77
2018-08-17T19:43:31.168Z,25.76
2018-08-17T19:45:57.947Z,25.75
2018-08-17T19:48:24.447Z,25.78
2018-08-17T19:50:51.124Z,25.75
2018-08-17T19:53:17.759Z,25.76
2018-08-17T19:55:44.396Z,25.74
2018-08-17T19:58:11.090Z,25.71
2018-08-17T20:00:37.720Z,25.71
2018-08-17T20:03:04.366Z,25.73
2018-08-17T20:05:30.961Z,25.74
2018-08-17T20:07:57.647Z,25.72
2018-08-17T20:10:24.288Z,25.70
2018-08-17T20:12:50.982Z,25.71
2018-08-17T20:15:17.734Z,25.69
2018-08-17T20:17:44.330Z,25.70
2018-08-17T20:20:10.969Z,25.70
2018-08-17T20:22:37.612Z,25.68
2018-08-17T20:25:04.289Z,25.70
2018-08-17T20:27:30.914Z,25.69
2018-08-17T20:29:57.559Z,25.68
2018-08-17T20:32:24.209Z,25.67
2018-08-17T20:34:50.849Z,25.65
2018-08-17T20:37:17.487Z,25.65
2018-08-17T20:39:44.146Z,25.63
2018-08-17T20:42:10.793Z,25.64
2018-08-17T20:44:37.466Z,25.62
2018-08-17T20:47:04.106Z,25.60
2018-08-17T20:49:30.785Z,25.57
2018-08-17T20:51:57.417Z,25.55
2018-08-17T20:54:24.041Z,25.52
2018-08-17T20:56:50.680Z,25.56
2018-08-17T20:59:17.312Z,25.57
2018-08-17T21:01:43.997Z,25.56
2018-08-17T21:04:10.633Z,25.56
2018-08-17T21:06:37.341Z,25.53
2018-08-17T21:09:03.978Z,25.54
2018-08-17T21:11:30.690Z,25.54
2018-08-17T21:13:57.283Z,25.52
2018-08-17T21:16:23.923Z,25.57
2018-08-17T21:18:50.644Z,25.53
2018-08-17T21:21:17.352Z,25.53
2018-08-17T21:23:43.957Z,25.48
2018-08-17T21:26:10.597Z,25.46
2018-08-17T21:28:37.229Z,25.49
2018-08-17T21:31:03.907Z,25.47
2018-08-17T21:33:30.544Z,25.48
2018-08-17T21:35:57.198Z,25.47
2018-08-17T21:38:23.858Z,25.44
2018-08-17T21:40:50.526Z,25.46
2018-08-17T21:43:17.176Z,25.46
2018-08-17T21:45:43.821Z,25.47
2018-08-17T21:48:10.500Z,25.44
2018-08-17T21:50:37.149Z,25.44
2018-08-17T21:53:03.830Z,25.43
2018-08-17T21:55:30.520Z,25.42
2018-08-17T21:57:57.164Z,25.40
2018-08-17T22:00:23.796Z,25.40
2018-08-17T22:02:50.441Z,25.35
2018-08-17T22:05:17.127Z,25.36
2018-08-17T22:07:43.765Z,25.35
2018-08-17T22:10:10.396Z,25.36
2018-08-17T22:12:37.047Z,25.37
2018-08-17T22:15:03.666Z,25.34
2018-08-17T22:17:30.336Z,25.31
2018-08-17T22:19:56.962Z,25.33
2018-08-17T22:22:23.639Z,25.31
2018-08-17T22:24:50.389Z,25.34
2018-08-17T22:27:17.045Z,25.33
2018-08-17T22:29:43.680Z,25.30
2018-08-17T22:32:10.311Z,25.31
2018-08-17T22:34:36.951Z,25.29
2018-08-17T22:37:03.588Z,25.30
2018-08-17T22:39:30.219Z,25.29
2018-08-17T22:41:57.000Z,25.28
2018-08-17T22:44:23.495Z,25.26
2018-08-17T22:46:50.133Z,25.27
2018-08-17T22:49:16.772Z,25.28
2018-08-17T22:51:43.416Z,25.25
2018-08-17T22:54:10.075Z,25.25
2018-08-17T22:56:36.712Z,25.28
2018-08-17T22:59:03.401Z,25.25
2018-08-17T23:01:30.074Z,25.24
2018-08-17T23:03:56.712Z,25.20
2018-08-17T23:06:23.468Z,25.21
2018-08-17T23:08:50.072Z,25.22
2018-08-17T23:11:16.728Z,25.21
2018-08-17T23:13:43.377Z,25.20
2018-08-17T23:16:10.020Z,25.20
2018-08-17T23:18:36.651Z,25.18
2018-08-17T23:21:04.589Z,25.16
2018-08-17T23:23:29.929Z,25.16
2018-08-17T23:25:56.622Z,25.15
2018-08-17T23:28:23.313Z,25.15
2018-08-17T23:30:49.951Z,25.14
2018-08-17T23:33:16.632Z,25.13
2018-08-17T23:35:43.271Z,25.13
2018-08-17T23:38:09.908Z,25.12
2018-08-17T23:40:36.553Z,25.15
2018-08-17T23:43:03.239Z,25.10
2018-08-17T23:45:29.880Z,25.10
2018-08-17T23:47:56.529Z,25.10
2018-08-17T23:50:23.166Z,25.10
2018-08-17T23:52:49.850Z,25.09
2018-08-17T23:55:16.494Z,25.08
2018-08-17T23:57:43.179Z,25.08
